Cave Spring, GA (30124)

8:34 AM EDT on September 01, 2015 (GMT -0400)
Lindale | | Change Station
CLOSE
Current Station
Personal Weather Station
Location: Lindale, GA
Elevation: 907 ft
Nearby Weather Stations

Elev 907 ft 34.16 °N, 85.19 °W | Updated 2 seconds ago

Clear
Clear
68.0 °F
Feels Like 68.0 °F
N
0.0
Wind Variable Wind from North
Gusts 0.0 mph

Today
High -- | Low -- °F
--% Chance of Precip.
Yesterday
High -- | Low -- °F
Precip. -- in
7:14 AM 8:07 PM
Waning Gibbous, 89% visible
Pressure 30.15 in
Visibility 2.5 miles
Clouds Mostly Cloudy 100 ft
Dew Point 67 °F
Humidity 97%
Rainfall 0.00 in
Snow Depth Not available.
UV 0.0 out of 12
Pollen 8.60 out of 12
Air Quality Not available.
Flu Activity Not available.
SPECI KRMG 011230Z AUTO 03004KT 2 1/2SM BR BKN001 19/19 A3015 RMK AO2 VIS 1V5 T01940189
Pressure 30.15 in
Visibility 2.5 miles
Clouds Mostly Cloudy 100 ft
Dew Point 67 °F
Humidity 97%
Rainfall 0.00 in
Snow Depth Not available.
UV 0.0 out of 12
Pollen 8.60 out of 12
Air Quality Not available.
Flu Activity Not available.
SPECI KRMG 011230Z AUTO 03004KT 2 1/2SM BR BKN001 19/19 A3015 RMK AO2 VIS 1V5 T01940189

10-Day Weather Forecast

×

Almanac

Astronomy

Sep. 01, 2015 Rise Set
Actual Time
Civil Twilight
Nautical Twilight
Astronomical Twilight
Moon
Length of Visible Light
Length of Day
Tomorrow will be .
, % of the Moon is Illuminated

Today's Extremes

State Highs State Lows

Community

WunderPhotos

Upload Photos

1,851,510 photos uploaded!

WunderBlogs® & News

Nearby

Air Quality

  Air Quality AQ Index Pollutant
Not available.

Snow Depth

Station Depth Elevation

Earthquake Activity

City Distance Mag. Time & Date
Minimum magnitude displayed is 2.5.

Coastal Water Temperatures

Place Temperature

Stations

Nearby Weather Stations

Station Location Temp. Windchill Dew Point Humidity Wind Precip. Elev Updated Type